Data for 08/25/2005

Time Sea-Level Adjusted Pressure Absolute Pressure Temperature Relative Humidity Dew Point   
(mb) (inHg) (mb) (inHg) (C) (F) (%) (C) (F)
00:05 1020 30.12 849 25.07 9.2 48.6 58 1.4 34.4
00:10 1020 30.12 849 25.07 9.2 48.6 58 1.5 34.7
00:15 1020 30.12 849 25.07 9.3 48.7 57 1.3 34.3
00:20 1020 30.12 849 25.07 9.3 48.8 57 1.3 34.3
00:25 1020 30.12 849 25.07 9.3 48.8 58 1.4 34.6
00:30 1020 30.12 849 25.07 8.9 47.9 60 1.6 34.9
00:35 1020 30.12 849 25.07 8.3 46.9 62 1.5 34.7
00:40 1020 30.12 849 25.07 8 46.4 63 1.4 34.6
00:45 1020 30.12 849 25.07 7.9 46.3 62 1.1 33.9
00:50 1020 30.12 849 25.07 8.2 46.7 59 0.8 33.4
00:55 1020 30.12 849 25.07 8.3 47 59 0.9 33.5
01:00 1020 30.12 849 25.07 8.3 47 59 0.8 33.5
01:05 1020 30.12 849 25.07 8.3 46.9 60 0.9 33.6
01:10 1020 30.12 849 25.07 8.2 46.7 60 0.9 33.5
01:15 1020 30.12 849 25.07 8 46.4 61 0.9 33.6
01:20 1020 30.12 849 25.07 8 46.3 61 0.9 33.7
01:25 1020 30.12 849 25.07 7.9 46.2 61 0.8 33.5
01:30 1020 30.12 849 25.07 7.8 46 61 0.8 33.5
01:35 1020 30.12 849 25.07 7.7 45.9 61 0.8 33.5
01:40 1020 30.12 849 25.07 7.7 45.9 61 0.6 33.1
01:45 1020 30.12 849 25.07 7.7 45.8 61 0.6 33.2
01:50 1020 30.12 849 25.07 7.5 45.4 62 0.7 33.2
01:55 1020 30.12 849 25.07 7.1 44.8 63 0.5 32.9
02:00 1020 30.12 849 25.07 6.9 44.5 63 0.5 32.8
02:05 1020 30.12 849 25.07 6.8 44.3 64 0.5 32.9
02:10 1020 30.12 849 25.07 6.9 44.4 63 0.4 32.7
02:15 1020 30.12 849 25.07 7 44.7 62 0.2 32.4
02:20 1020 30.12 849 25.07 7.2 44.9 61 0.3 32.5
02:25 1020 30.12 849 25.07 7.3 45.1 61 0.4 32.7
02:30 1020 30.12 849 25.07 7.1 44.8 62 0.3 32.6
02:35 1020 30.12 849 25.07 7.1 44.8 62 0.4 32.8
02:40 1020 30.12 849 25.07 7 44.5 63 0.4 32.7
02:45 1020 30.12 849 25.07 6.9 44.4 63 0.3 32.6
02:50 1020 30.12 849 25.07 6.8 44.2 63 0.3 32.5
02:55 1020 30.12 849 25.07 6.8 44.3 63 0.4 32.7
03:00 1020 30.12 849 25.07 6.9 44.3 62 0.2 32.4
03:05 1020 30.12 849 25.07 7 44.6 62 0.2 32.4
03:10 1020 30.12 849 25.07 7.1 44.8 62 0.3 32.5
03:15 1020 30.12 849 25.07 7.1 44.7 62 0.2 32.4
03:20 1020 30.12 849 25.07 7.2 44.9 61 0.1 32.2
03:25 1020 30.12 849 25.07 7.5 45.4 60 0.2 32.4
03:30 1020 30.12 849 25.07 7.5 45.5 60 0.3 32.6
03:35 1020 30.12 850 25.1 7.5 45.4 61 0.3 32.6
03:40 1020 30.12 850 25.1 7.4 45.4 60 0.3 32.5
03:45 1020 30.12 850 25.1 7.4 45.3 61 0.3 32.6
03:50 1020 30.12 850 25.1 7.2 44.9 62 0.4 32.7
03:55 1020 30.12 850 25.1 6.8 44.2 64 0.4 32.8
04:00 1020 30.12 850 25.1 6.5 43.7 65 0.3 32.6
04:05 1020 30.12 850 25.1 6.4 43.5 65 0.3 32.6
04:10 1021 30.15 850 25.1 6.5 43.7 64 0.3 32.5
04:15 1021 30.15 850 25.1 6.5 43.7 64 0.3 32.5
04:20 1021 30.15 850 25.1 6.5 43.8 64 0.3 32.5
04:25 1021 30.15 850 25.1 6.6 43.9 63 0 32.1
04:30 1021 30.15 850 25.1 6.9 44.4 62 0.1 32.2
04:35 1021 30.15 850 25.1 7 44.7 61 0.1 32.2
04:40 1021 30.15 850 25.1 7.1 44.7 63 0.4 32.8
04:45 1021 30.15 850 25.1 6.7 44.1 64 0.5 32.9
04:50 1021 30.15 850 25.1 6.5 43.6 65 0.3 32.5
04:55 1021 30.15 850 25.1 6.4 43.6 66 0.5 32.9
05:00 1021 30.15 850 25.1 6.3 43.3 67 0.5 33
05:05 1021 30.15 850 25.1 6.1 42.9 68 0.7 33.3
05:10 1021 30.15 850 25.1 6 42.8 68 0.6 33.1
05:15 1021 30.15 850 25.1 5.7 42.3 69 0.6 33
05:20 1021 30.15 850 25.1 5.6 42.2 68 0.3 32.5
05:25 1021 30.15 850 25.1 5.3 41.6 71 0.6 33
05:30 1021 30.15 850 25.1 5 41.1 73 0.5 33
05:35 1021 30.15 850 25.1 4.9 40.9 74 0.7 33.3
05:40 1021 30.15 850 25.1 4.7 40.5 75 0.7 33.2
05:45 1021 30.15 850 25.1 4.6 40.3 75 0.6 33.1
05:50 1021 30.15 850 25.1 4.6 40.2 75 0.6 33
05:55 1021 30.15 850 25.1 4.6 40.2 74 0.4 32.7
06:00 1021 30.15 850 25.1 4.7 40.5 73 0.3 32.6
06:05 1021 30.15 850 25.1 5 41 71 0.3 32.5
06:10 1021 30.15 850 25.1 5.1 41.2 70 0.1 32.2
06:15 1021 30.15 850 25.1 5.5 41.8 68 0.1 32.2
06:20 1021 30.15 850 25.1 5.6 42 68 0.2 32.3
06:25 1021 30.15 850 25.1 5.8 42.5 67 0.3 32.5
06:30 1021 30.15 850 25.1 5.6 42.2 69 0.4 32.7
06:35 1021 30.15 851 25.13 5.2 41.4 70 0.3 32.5
06:40 1021 30.15 851 25.13 5.1 41.2 71 0.3 32.5
06:45 1021 30.15 851 25.13 5.1 41.2 70 0.2 32.3
06:50 1021 30.15 851 25.13 5.2 41.3 70 0.2 32.4
06:55 1021 30.15 851 25.13 5.4 41.7 69 0.2 32.4
07:00 1021 30.15 851 25.13 5.6 42.1 69 0.4 32.8
07:05 1022 30.18 851 25.13 5.3 41.5 71 0.4 32.7
07:10 1022 30.18 851 25.13 5 41 72 0.3 32.5
07:15 1022 30.18 851 25.13 4.9 40.8 72 0.3 32.5
07:20 1022 30.18 851 25.13 5 41 71 0.1 32.2
07:25 1022 30.18 851 25.13 5.4 41.6 70 0.3 32.5
07:30 1022 30.18 851 25.13 5.8 42.4 68 0.3 32.5
07:35 1022 30.18 851 25.13 6.3 43.3 65 0.2 32.4
07:40 1022 30.18 851 25.13 6.8 44.2 63 0.3 32.5
07:45 1022 30.18 851 25.13 7.2 44.9 63 0.6 33.1
07:50 1022 30.18 851 25.13 7.4 45.4 62 0.7 33.3
07:55 1022 30.18 851 25.13 7.9 46.2 61 0.8 33.4
08:00 1022 30.18 851 25.13 8.3 46.9 61 1.2 34.1
08:05 1022 30.18 851 25.13 8.4 47 60 1.1 33.9
08:10 1022 30.18 851 25.13 9.1 48.5 57 1.1 34
08:15 1022 30.18 851 25.13 9.8 49.6 55 1.1 34.1
08:20 1022 30.18 851 25.13 10.3 50.5 53 1 33.9
08:25 1022 30.18 851 25.13 10.2 50.3 54 1.3 34.4
08:30 1022 30.18 851 25.13 9.8 49.6 57 1.8 35.3
08:35 1022 30.18 851 25.13 10.4 50.7 54 1.5 34.8
08:40 1022 30.18 851 25.13 10.8 51.5 54 1.9 35.4
08:45 1022 30.18 851 25.13 11.2 52.1 52 1.9 35.3
08:50 1022 30.18 851 25.13 11.7 53 50 1.8 35.2
08:55 1022 30.18 851 25.13 12.1 53.7 50 1.9 35.5
09:00 1022 30.18 851 25.13 12.3 54.1 49 1.9 35.3
09:05 1022 30.18 851 25.13 12.6 54.7 49 2.4 36.3
09:10 1022 30.18 851 25.13 12.5 54.5 48 1.9 35.4
09:15 1022 30.18 851 25.13 12.9 55.2 46 1.6 34.9
09:20 1022 30.18 851 25.13 13.4 56.2 43 1.3 34.3
09:25 1022 30.18 851 25.13 13.6 56.4 44 1.5 34.7
09:30 1022 30.18 851 25.13 13.6 56.4 44 1.5 34.7
09:35 1022 30.18 851 25.13 13.7 56.6 44 1.8 35.2
09:40 1022 30.18 851 25.13 13.2 55.8 44 1.3 34.4
09:45 1022 30.18 851 25.13 14 57.2 43 1.7 35.1
09:50 1022 30.18 851 25.13 14.3 57.7 44 2.2 36
09:55 1022 30.18 851 25.13 14.5 58.1 42 1.8 35.3
10:00 1022 30.18 851 25.13 14.5 58.1 43 2.2 35.9
10:05 1022 30.18 851 25.13 14.1 57.4 45 2.4 36.2
10:10 1022 30.18 851 25.13 14.3 57.8 42 1.8 35.3
10:15 1022 30.18 851 25.13 14.9 58.9 42 2.2 35.9
10:20 1022 30.18 851 25.13 14.6 58.3 44 2.5 36.5
10:25 1022 30.18 851 25.13 15.1 59.1 42 2.2 36
10:30 1022 30.18 851 25.13 15.5 60 40 2 35.7
10:35 1022 30.18 851 25.13 15.1 59.1 42 2.3 36.2
10:40 1022 30.18 851 25.13 15.6 60.2 40 2.2 36
10:45 1022 30.18 851 25.13 15.9 60.6 40 2.5 36.4
10:50 1022 30.18 851 25.13 15.8 60.4 40 2.3 36.2
10:55 1022 30.18 851 25.13 15.6 60.2 41 2.6 36.7
11:00 1022 30.18 851 25.13 14.6 58.3 43 2.3 36.1
11:05 1022 30.18 851 25.13 14.9 58.8 40 1.4 34.5
11:10 1022 30.18 851 25.13 15.5 60 40 2.1 35.8
11:15 1022 30.18 851 25.13 15.6 60.2 39 2 35.5
11:20 1022 30.18 851 25.13 15.7 60.2 39 1.8 35.2
11:25 1022 30.18 851 25.13 16.7 62.1 35 1.3 34.3
11:30 1022 30.18 851 25.13 16.7 62.1 36 1.9 35.4
11:35 1022 30.18 851 25.13 16.7 62 36 1.5 34.7
11:40 1022 30.18 851 25.13 17.5 63.4 34 1.4 34.5
11:45 1022 30.18 851 25.13 17.4 63.2 35 1.7 35.1
11:50 1022 30.18 851 25.13 16.8 62.2 35 1.5 34.7
11:55 1022 30.18 851 25.13 16.9 62.4 35 1.5 34.7
12:00 1022 30.18 851 25.13 17.3 63.1 33 0.9 33.6
12:05 1022 30.18 851 25.13 17.7 63.8 32 0.9 33.7
12:10 1022 30.18 851 25.13 17.8 64 33 1.4 34.6
12:15 1022 30.18 851 25.13 18 64.5 31 0.8 33.5
12:20 1022 30.18 851 25.13 18.6 65.4 32 1.5 34.7
12:25 1022 30.18 851 25.13 18.6 65.5 33 2 35.5
12:30 1022 30.18 851 25.13 18 64.4 32 1.2 34.1
12:35 1022 30.18 851 25.13 18.3 64.9 31 0.9 33.6
12:40 1022 30.18 851 25.13 18.3 64.9 30 0.6 33
12:45 1022 30.18 851 25.13 18.4 65.1 30 0.6 33.1
12:50 1022 30.18 851 25.13 18 64.3 31 0.7 33.2
12:55 1022 30.18 851 25.13 18.3 64.9 29 0.3 32.6
13:00 1022 30.18 851 25.13 18.5 65.4 30 0.7 33.2
13:05 1022 30.18 851 25.13 18.8 65.8 28 0.1 32.3
13:10 1022 30.18 851 25.13 18.8 65.8 28 0.1 32.2
13:15 1022 30.18 851 25.13 19 66.2 28 0.1 32.2
13:20 1022 30.18 851 25.13 19 66.3 29 0.7 33.3
13:25 1022 30.18 851 25.13 19.2 66.5 27 -0.2 31.6
13:30 1022 30.18 851 25.13 19.1 66.4 28 0.1 32.2
13:35 1022 30.18 851 25.13 18.8 65.9 28 0.2 32.4
13:40 1022 30.18 851 25.13 19.1 66.4 27 0 32
13:45 1022 30.18 851 25.13 19.9 67.8 27 0.6 33.1
13:50 1022 30.18 851 25.13 20.1 68.2 26 0.2 32.3
13:55 1022 30.18 851 25.13 19.7 67.5 26 -0.3 31.5
14:00 1022 30.18 851 25.13 19.8 67.6 25 -0.7 30.7
14:05 1022 30.18 851 25.13 19.6 67.4 25 -0.7 30.8
14:10 1022 30.18 851 25.13 19.9 67.7 26 -0.2 31.7
14:15 1022 30.18 851 25.13 20.2 68.3 25 -0.5 31
14:20 1022 30.18 851 25.13 19.9 67.8 26 -0.3 31.5
14:25 1022 30.18 851 25.13 19.8 67.6 25 -0.8 30.6
14:30 1022 30.18 851 25.13 19.9 67.9 24 -1.3 29.7
14:35 1022 30.18 851 25.13 19.9 67.9 25 -0.3 31.4
14:40 1022 30.18 851 25.13 20.3 68.6 24 -0.5 31
14:45 1022 30.18 851 25.13 20.9 69.6 25 0.2 32.4
14:50 1021 30.15 851 25.13 20.8 69.5 24 -0.1 31.9
14:55 1021 30.15 851 25.13 20.7 69.2 25 0.2 32.4
15:00 1021 30.15 851 25.13 20.9 69.6 24 -0.3 31.4
15:05 1021 30.15 851 25.13 20.9 69.5 25 0.1 32.1
15:10 1021 30.15 851 25.13 20.9 69.6 25 0.1 32.2
15:15 1021 30.15 851 25.13 20.9 69.6 25 0.1 32.1
15:20 1021 30.15 851 25.13 21 69.8 24 0 32
15:25 1021 30.15 850 25.1 20.9 69.6 24 -0.1 31.9
15:30 1021 30.15 850 25.1 21.4 70.6 24 -0 31.9
15:35 1021 30.15 850 25.1 21.5 70.8 23 -0.3 31.4
15:40 1021 30.15 850 25.1 21.6 70.9 23 -0.2 31.6
15:45 1021 30.15 850 25.1 21.5 70.7 22 -0.6 30.9
15:50 1021 30.15 850 25.1 21.2 70.2 23 -0.4 31.2
15:55 1021 30.15 850 25.1 21.4 70.5 23 -0.6 30.9
16:00 1021 30.15 850 25.1 21.5 70.8 22 -0.6 30.9
16:05 1021 30.15 850 25.1 21.2 70.2 24 -0 31.9
16:10 1021 30.15 850 25.1 20.9 69.7 24 -0.2 31.7
16:15 1021 30.15 850 25.1 21.7 71.1 22 -0.7 30.8
16:20 1021 30.15 850 25.1 22.2 72 22 -0.4 31.2
16:25 1021 30.15 850 25.1 22 71.5 22 -0.6 31
16:30 1021 30.15 850 25.1 22 71.6 22 -0.7 30.7
16:35 1021 30.15 850 25.1 22.1 71.8 22 -0.3 31.5
16:40 1021 30.15 850 25.1 20.9 69.7 24 -0.4 31.3
16:45 1021 30.15 850 25.1 20.1 68.1 25 -0.4 31.3
16:50 1021 30.15 850 25.1 19.9 67.8 24 -0.8 30.5
16:55 1021 30.15 850 25.1 20.5 68.8 24 -0.4 31.3
17:00 1021 30.15 850 25.1 20.9 69.7 24 -0.1 31.8
17:05 1021 30.15 850 25.1 20.1 68.1 25 -0.2 31.6
17:10 1021 30.15 850 25.1 20.2 68.3 24 -1 30.3
17:15 1021 30.15 850 25.1 20.7 69.2 24 -0.7 30.8
17:20 1021 30.15 850 25.1 20.8 69.5 24 -0.5 31.2
17:25 1021 30.15 850 25.1 21 69.9 23 -0.6 30.9
17:30 1021 30.15 850 25.1 21 69.8 24 -0 31.9
17:35 1021 30.15 850 25.1 21 69.7 24 -0.4 31.2
17:40 1021 30.15 850 25.1 21.2 70.1 22 -0.9 30.3
17:45 1021 30.15 850 25.1 21.6 70.9 22 -1.1 30.1
17:50 1021 30.15 850 25.1 21.9 71.5 22 -0.6 31
17:55 1021 30.15 850 25.1 21.5 70.8 23 -0.3 31.5
18:00 1021 30.15 850 25.1 20.7 69.2 23 -0.9 30.4
18:05 1021 30.15 850 25.1 21.4 70.6 23 -0.6 30.9
18:10 1021 30.15 850 25.1 21.3 70.4 23 -0.2 31.7
18:15 1020 30.12 850 25.1 20.9 69.6 23 -0.7 30.8
18:20 1020 30.12 850 25.1 20.9 69.6 24 -0.3 31.4
18:25 1020 30.12 850 25.1 20.7 69.2 23 -1.1 30
18:30 1020 30.12 850 25.1 20.5 68.9 22 -1.5 29.3
18:35 1020 30.12 850 25.1 20.4 68.7 23 -1.1 30
18:40 1020 30.12 850 25.1 20.2 68.3 24 -1.1 30.1
18:45 1020 30.12 849 25.07 20.2 68.4 24 -0.7 30.7
18:50 1020 30.12 849 25.07 20.1 68.2 24 -1.1 30
18:55 1020 30.12 849 25.07 20.1 68.1 24 -0.9 30.4
19:00 1020 30.12 849 25.07 20.1 68.1 25 -0.7 30.8
19:05 1020 30.12 849 25.07 20 68 24 -1.1 30.1
19:10 1020 30.12 849 25.07 19.9 67.8 24 -1 30.1
19:15 1020 30.12 849 25.07 20 67.9 24 -1.2 29.9
19:20 1020 30.12 849 25.07 20.1 68.3 25 -0.6 31
19:25 1020 30.12 849 25.07 20 68 24 -1 30.2
19:30 1020 30.12 849 25.07 19.8 67.7 24 -0.9 30.3
19:35 1020 30.12 849 25.07 19.8 67.6 24 -1 30.1
19:40 1020 30.12 849 25.07 19.7 67.5 24 -1.2 29.9
19:45 1020 30.12 849 25.07 19.7 67.4 25 -0.8 30.5
19:50 1020 30.12 849 25.07 19.7 67.4 27 0.4 32.8
19:55 1020 30.12 849 25.07 19.7 67.4 26 0.1 32.1
20:00 1020 30.12 850 25.1 19.5 67.1 31 2.2 36
20:05 1020 30.12 850 25.1 19.2 66.5 30 1.3 34.4
20:10 1020 30.12 850 25.1 19 66.2 33 2.3 36.1
20:15 1020 30.12 850 25.1 18.9 66.1 31 1.7 35.1
20:20 1020 30.12 850 25.1 18.5 65.2 35 3 37.4
20:25 1020 30.12 850 25.1 18.2 64.8 36 2.9 37.3
20:30 1020 30.12 850 25.1 17.3 63.1 40 3.7 38.7
20:35 1020 30.12 850 25.1 16.4 61.6 44 4.2 39.5
20:40 1020 30.12 850 25.1 15.8 60.4 43 3.2 37.8
20:45 1020 30.12 850 25.1 15.3 59.6 43 3 37.3
20:50 1020 30.12 850 25.1 15.4 59.6 41 2.4 36.3
20:55 1021 30.15 850 25.1 15.2 59.4 41 2 35.6
21:00 1021 30.15 850 25.1 14.9 58.8 41 1.7 35.1
21:05 1021 30.15 850 25.1 14.9 58.7 42 2.3 36.2
21:10 1021 30.15 850 25.1 14.5 58.1 45 2.7 36.9
21:15 1021 30.15 850 25.1 13.7 56.6 47 2.5 36.6
21:20 1021 30.15 850 25.1 13.4 56.2 47 2.4 36.3
21:25 1021 30.15 850 25.1 13.4 56.2 46 2.2 35.9
21:30 1021 30.15 850 25.1 13.4 56.1 46 2.2 36
21:35 1021 30.15 850 25.1 13.4 56.1 46 2.2 35.9
21:40 1021 30.15 850 25.1 13.3 56 45 1.8 35.3
21:45 1021 30.15 850 25.1 13.4 56.1 44 1.6 34.9
21:50 1021 30.15 850 25.1 13.6 56.5 43 1.3 34.3
21:55 1021 30.15 850 25.1 13.5 56.2 42 0.8 33.5
22:00 1021 30.15 850 25.1 12.9 55.2 44 0.9 33.6
22:05 1021 30.15 850 25.1 12.5 54.4 44 0.7 33.3
22:10 1021 30.15 850 25.1 12.4 54.2 45 0.9 33.7
22:15 1021 30.15 850 25.1 12.2 54 45 0.8 33.5
22:20 1021 30.15 850 25.1 12.3 54.1 46 1 33.8
22:25 1021 30.15 850 25.1 12.5 54.6 45 1 33.7
22:30 1021 30.15 850 25.1 12.6 54.7 44 0.8 33.5
22:35 1021 30.15 850 25.1 12.5 54.6 45 0.8 33.5
22:40 1021 30.15 850 25.1 12.3 54.1 46 0.9 33.7
22:45 1021 30.15 850 25.1 12.1 53.7 45 0.4 32.8
22:50 1021 30.15 850 25.1 12.1 53.8 44 0.4 32.8
22:55 1021 30.15 850 25.1 12.1 53.8 44 0.4 32.6
23:00 1021 30.15 850 25.1 12.1 53.7 45 0.4 32.8
23:05 1021 30.15 850 25.1 12.2 53.9 43 0.1 32.1
23:10 1021 30.15 850 25.1 12.4 54.3 43 0.2 32.3
23:15 1021 30.15 850 25.1 12.4 54.4 42 -0 32
23:20 1021 30.15 850 25.1 12.4 54.2 43 0.2 32.3
23:25 1021 30.15 850 25.1 12.3 54.1 42 -0.2 31.7
23:30 1021 30.15 850 25.1 12.1 53.8 42 -0.2 31.6
23:35 1021 30.15 850 25.1 12 53.7 42 -0.5 31.2
23:40 1021 30.15 850 25.1 12.1 53.7 42 -0.5 31.1
23:45 1021 30.15 850 25.1 12.1 53.7 41 -0.8 30.6
23:50 1021 30.15 850 25.1 12 53.6 41 -0.6 30.9
23:55 1021 30.15 850 25.1 12 53.5 41 -0.7 30.8
24:00 1021 30.15 850 25.1 11.9 53.4 42 -0.7 30.8